| time (UTC) | temp F | wind direction | speed knots | gust knots | rain 1hr in | rain 24hr in | rain mn in | humidity % | barometer mb |
| 20260510201553 | 50 | 0 | 0.0 | 2.6 | 0.00 | 0.00 | 0.00 | 60 | 1020.9 |
| 20260510200050 | 50 | 34 | 0.0 | 4.3 | 0.00 | 0.00 | 0.00 | 59 | 1020.9 |
| 20260510194555 | 51 | 0 | 0.0 | 2.6 | 0.00 | 0.00 | 0.00 | 56 | 1021.0 |
| 20260510193052 | 52 | 0 | 0.0 | 5.2 | 0.00 | 0.00 | 0.00 | 54 | 1020.9 |
| 20260510191556 | 53 | 0 | 0.9 | 7.0 | 0.00 | 0.00 | 0.00 | 53 | 1021.0 |
| 20260510184554 | 55 | 27 | 0.9 | 7.8 | 0.00 | 0.00 | 0.00 | 51 | 1021.2 |
| 20260510183053 | 56 | 44 | 2.6 | 10.4 | 0.00 | 0.00 | 0.00 | 50 | 1021.1 |
| 20260510181555 | 55 | 0 | 0.0 | 9.6 | 0.00 | 0.00 | 0.00 | 51 | 1021.1 |
| 20260510180103 | 57 | 43 | 0.9 | 9.6 | 0.00 | 0.00 | 0.00 | 49 | 1021.1 |
| 20260510174603 | 57 | 32 | 1.7 | 7.0 | 0.00 | 0.00 | 0.00 | 48 | 1021.0 |
| 20260510173054 | 58 | 68 | 3.5 | 8.7 | 0.00 | 0.00 | 0.00 | 47 | 1021.2 |
| 20260510171559 | 58 | 70 | 0.0 | 8.7 | 0.00 | 0.00 | 0.00 | 49 | 1021.4 |
| 20260510170058 | 59 | 58 | 0.9 | 7.8 | 0.00 | 0.00 | 0.00 | 46 | 1021.5 |
| 20260510164605 | 58 | 162 | 2.6 | 14.8 | 0.00 | 0.00 | 0.00 | 49 | 1021.7 |
| 20260510163137 | 58 | 10 | 0.9 | 9.6 | 0.00 | 0.00 | 0.00 | 49 | 1021.8 |
| 20260510161555 | 60 | 40 | 0.9 | 7.0 | 0.00 | 0.00 | 0.00 | 50 | 1021.9 |
| 20260510160101 | 59 | 88 | 0.9 | 9.6 | 0.00 | 0.00 | 0.00 | 50 | 1022.2 |
| 20260510154600 | 59 | 183 | 0.9 | 8.7 | 0.00 | 0.00 | 0.00 | 50 | 1022.2 |
| 20260510153102 | 60 | 55 | 0.9 | 8.7 | 0.00 | 0.00 | 0.00 | 51 | 1022.3 |
| 20260510151625 | 59 | 18 | 1.7 | 9.6 | 0.00 | 0.00 | 0.00 | 50 | 1022.5 |
| 20260510150100 | 60 | 102 | 1.7 | 6.1 | 0.00 | 0.00 | 0.00 | 52 | 1022.6 |
| 20260510144614 | 59 | 196 | 1.7 | 10.4 | 0.00 | 0.00 | 0.00 | 52 | 1022.8 |
| 20260510143105 | 59 | 65 | 2.6 | 13.9 | 0.00 | 0.00 | 0.00 | 54 | 1023.0 |
| 20260510141558 | 58 | 50 | 1.7 | 13.0 | 0.00 | 0.00 | 0.00 | 56 | 1023.1 |
| 20260510140053 | 57 | 311 | 1.7 | 10.4 | 0.00 | 0.00 | 0.00 | 57 | 1023.3 |
| 20260510134557 | 58 | 230 | 0.0 | 7.0 | 0.00 | 0.00 | 0.00 | 59 | 1023.2 |
| 20260510133053 | 58 | 78 | 1.7 | 10.4 | 0.00 | 0.00 | 0.00 | 58 | 1023.4 |
| 20260510131555 | 58 | 333 | 1.7 | 8.7 | 0.00 | 0.00 | 0.00 | 58 | 1023.6 |
| 20260510130054 | 56 | 38 | 2.6 | 11.3 | 0.00 | 0.00 | 0.00 | 63 | 1023.6 |
| 20260510124601 | 55 | 73 | 2.6 | 13.9 | 0.00 | 0.00 | 0.00 | 64 | 1023.7 |
| 20260510123056 | 54 | 0 | 1.7 | 13.9 | 0.00 | 0.00 | 0.00 | 66 | 1023.9 |
| 20260510121554 | 54 | 176 | 1.7 | 11.3 | 0.00 | 0.00 | 0.00 | 67 | 1024.0 |
| 20260510120049 | 53 | 292 | 2.6 | 11.3 | 0.00 | 0.00 | 0.00 | 68 | 1024.2 |
| 20260510114549 | 53 | 86 | 4.3 | 14.8 | 0.00 | 0.00 | 0.00 | 68 | 1024.5 |
| 20260510113051 | 54 | 182 | 2.6 | 9.6 | 0.00 | 0.00 | 0.00 | 68 | 1024.5 |
| 20260510111548 | 54 | 74 | 2.6 | 15.6 | 0.00 | 0.00 | 0.00 | 69 | 1024.8 |
| 20260510110052 | 55 | 35 | 3.5 | 12.2 | 0.00 | 0.00 | 0.00 | 68 | 1024.9 |
| 20260510104551 | 54 | 49 | 3.5 | 12.2 | 0.00 | 0.00 | 0.00 | 70 | 1025.1 |
| 20260510103049 | 53 | 123 | 1.7 | 9.6 | 0.00 | 0.00 | 0.00 | 73 | 1025.3 |
| 20260510101554 | 52 | 333 | 1.7 | 9.6 | 0.00 | 0.00 | 0.00 | 74 | 1025.4 |
| 20260510100109 | 51 | 55 | 1.7 | 7.0 | 0.00 | 0.00 | 0.00 | 76 | 1025.4 |
| 20260510094600 | 51 | 233 | 0.9 | 6.1 | 0.00 | 0.00 | 0.00 | 77 | 1025.5 |
| 20260510093058 | 50 | 193 | 2.6 | 8.7 | 0.00 | 0.00 | 0.00 | 78 | 1025.6 |
| 20260510091550 | 50 | 0 | 1.7 | 7.0 | 0.00 | 0.00 | 0.00 | 79 | 1025.7 |
| 20260510090056 | 49 | 55 | 2.6 | 9.6 | 0.00 | 0.00 | 0.00 | 80 | 1025.7 |
| 20260510084611 | 49 | 63 | 0.9 | 5.2 | 0.00 | 0.00 | 0.00 | 80 | 1025.8 |
| 20260510083053 | 48 | 219 | 1.7 | 7.0 | 0.00 | 0.00 | 0.00 | 81 | 1025.9 |
| 20260510081555 | 48 | 53 | 1.7 | 4.3 | 0.00 | 0.00 | 0.00 | 81 | 1026.1 |
| 20260510080048 | 48 | 80 | 0.0 | 7.0 | 0.00 | 0.00 | 0.00 | 82 | 1025.9 |
| 20260510074549 | 48 | 169 | 1.7 | 12.2 | 0.00 | 0.00 | 0.00 | 82 | 1025.8 |
| 20260510073100 | 49 | 196 | 0.9 | 7.0 | 0.00 | 0.00 | 0.00 | 82 | 1025.7 |
| 20260510071551 | 49 | 19 | 2.6 | 10.4 | 0.00 | 0.00 | 0.00 | 82 | 1025.7 |
| 20260510070055 | 49 | 31 | 0.9 | 7.0 | 0.00 | 0.00 | 0.00 | 82 | 1025.6 |
| 20260510064551 | 49 | 44 | 1.7 | 10.4 | 0.00 | 0.00 | 0.00 | 83 | 1025.5 |
| 20260510063051 | 49 | 5 | 3.5 | 11.3 | 0.00 | 0.00 | 0.00 | 83 | 1025.5 |
| 20260510061551 | 49 | 28 | 0.9 | 8.7 | 0.00 | 0.00 | 0.00 | 84 | 1025.4 |
| 20260510060053 | 49 | 53 | 0.9 | 7.8 | 0.00 | 0.00 | 0.00 | 84 | 1025.3 |
| 20260510054551 | 49 | 187 | 2.6 | 11.3 | 0.00 | 0.00 | 0.00 | 83 | 1025.3 |
| 20260510053051 | 49 | 20 | 0.0 | 3.5 | 0.00 | 0.00 | 0.00 | 83 | 1025.3 |
| 20260510051550 | 49 | 24 | 1.7 | 7.8 | 0.00 | 0.00 | 0.00 | 83 | 1025.3 |
| 20260510050056 | 49 | 19 | 0.9 | 4.3 | 0.00 | 0.00 | 0.00 | 83 | 1025.4 |
| 20260510044558 | 49 | 11 | 0.9 | 4.3 | 0.00 | 0.00 | 0.00 | 83 | 1025.4 |
| 20260510043110 | 49 | 46 | 0.0 | 7.8 | 0.00 | 0.00 | 0.00 | 84 | 1025.4 |
| 20260510041554 | 49 | 0 | 0.0 | 4.3 | 0.00 | 0.00 | 0.00 | 84 | 1025.5 |
| 20260510040057 | 48 | 0 | 0.9 | 9.6 | 0.00 | 0.00 | 0.00 | 84 | 1025.6 |
| 20260510034552 | 48 | 48 | 0.0 | 5.2 | 0.00 | 0.00 | 0.00 | 85 | 1025.6 |
| 20260510033115 | 49 | 33 | 0.9 | 2.6 | 0.00 | 0.00 | 0.00 | 85 | 1025.7 |
| 20260510031558 | 48 | 69 | 0.9 | 4.3 | 0.00 | 0.00 | 0.00 | 85 | 1025.9 |
| 20260510030059 | 48 | 55 | 0.9 | 3.5 | 0.00 | 0.00 | 0.00 | 85 | 1025.8 |
| 20260510024549 | 48 | 0 | 0.9 | 8.7 | 0.00 | 0.00 | 0.00 | 84 | 1025.9 |
| 20260510023049 | 49 | 40 | 1.7 | 10.4 | 0.00 | 0.00 | 0.00 | 84 | 1025.9 |
| 20260510021546 | 48 | 43 | 3.5 | 10.4 | 0.00 | 0.00 | 0.00 | 83 | 1025.9 |
| 20260510020053 | 48 | 53 | 2.6 | 12.2 | 0.00 | 0.00 | 0.00 | 83 | 1026.0 |
| 20260510014551 | 49 | 13 | 0.9 | 10.4 | 0.00 | 0.00 | 0.00 | 84 | 1025.8 |
| 20260510013050 | 49 | 15 | 2.6 | 7.8 | 0.00 | 0.00 | 0.00 | 84 | 1025.9 |
| 20260510011552 | 49 | 21 | 2.6 | 9.6 | 0.00 | 0.00 | 0.00 | 84 | 1025.9 |
| 20260510010050 | 49 | 24 | 1.7 | 6.1 | 0.00 | 0.00 | 0.00 | 84 | 1026.1 |
| 20260510004550 | 49 | 192 | 1.7 | 10.4 | 0.00 | 0.00 | 0.00 | 84 | 1025.8 |
| 20260510003047 | 49 | 227 | 1.7 | 7.0 | 0.00 | 0.00 | 0.00 | 84 | 1025.8 |
| 20260510001550 | 49 | 231 | 0.9 | 4.3 | 0.00 | 0.00 | 0.00 | 84 | 1025.6 |
| 20260510000104 | 50 | 242 | 1.7 | 9.6 | 0.00 | 0.00 | 0.00 | 84 | 1025.3 |
| 20260509234557 | 50 | 223 | 0.9 | 7.0 | 0.00 | 0.00 | 0.00 | 83 | 1025.3 |
| 20260509233050 | 51 | 0 | 1.7 | 7.8 | 0.00 | 0.00 | 0.00 | 83 | 1025.2 |
| 20260509231550 | 51 | 54 | 1.7 | 10.4 | 0.00 | 0.00 | 0.00 | 82 | 1025.4 |
| 20260509230043 | 52 | 186 | 3.5 | 13.9 | 0.00 | 0.00 | 0.00 | 81 | 1025.3 |
| 20260509224549 | 52 | 90 | 0.9 | 13.0 | 0.00 | 0.00 | 0.00 | 80 | 1025.2 |
| 20260509223100 | 52 | 340 | 5.2 | 15.6 | 0.00 | 0.00 | 0.00 | 79 | 1025.1 |
| 20260509221550 | 53 | 30 | 2.6 | 8.7 | 0.00 | 0.00 | 0.00 | 78 | 1025.2 |
| 20260509220049 | 53 | 44 | 1.7 | 7.8 | 0.00 | 0.00 | 0.00 | 77 | 1025.2 |
| 20260509214550 | 54 | 81 | 1.7 | 9.6 | 0.00 | 0.00 | 0.00 | 77 | 1025.2 |
| 20260509213051 | 55 | 0 | 0.9 | 3.5 | 0.00 | 0.00 | 0.00 | 77 | 1025.1 |
| 20260509211551 | 56 | 0 | 0.0 | 2.6 | 0.00 | 0.00 | 0.00 | 77 | 1024.8 |
| 20260509210059 | 57 | 0 | 0.9 | 2.6 | 0.00 | 0.00 | 0.00 | 76 | 1024.6 |
| 20260509204553 | 58 | 0 | 0.9 | 3.5 | 0.00 | 0.00 | 0.00 | 75 | 1024.6 |
| 20260509203050 | 58 | 109 | 0.0 | 7.0 | 0.00 | 0.00 | 0.00 | 73 | 1024.4 |